Time;durP1;ratioP1;P1;durP2;ratioP2;P2;SDS_P1;SDS_P2;PMS_P1;PMS_P2;Temp;Humidity;BMP_temperature;BMP_pressure;BME280_temperature;BME280_humidity;BME280_pressure;Samples;Min_cycle;Max_cycle;Signal;HPM_P1;HPM_P2
2023/07/26 00:02:40;;;;;;;;;;;;;;;;;;6178377;28;20033;-68
2023/07/26 00:05:40;;;;;;;1.52;0.60;;;;;;;;;;6191623;28;19953;-68
2023/07/26 00:08:41;;;;;;;;;;;;;;;;;;6190550;28;20030;-68
2023/07/26 00:11:41;;;;;;;0.50;0.50;;;;;;;;;;6186847;28;19910;-68
2023/07/26 00:14:41;;;;;;;;;;;;;;;;;;6190968;28;20395;-69
2023/07/26 00:17:42;;;;;;;1.23;0.60;;;;;;;;;;6189060;28;20367;-69
2023/07/26 00:20:42;;;;;;;;;;;;;;;;;;6192529;28;20380;-69
2023/07/26 00:23:42;;;;;;;0.38;0.38;;;;;;;;;;6191201;28;19945;-68
2023/07/26 00:26:42;;;;;;;;;;;;;;;;;;6203995;28;20054;-67
2023/07/26 00:29:42;;;;;;;0.77;0.50;;;;;;;;;;6190887;28;19992;-70
2023/07/26 00:32:43;;;;;;;;;;;;;;;;;;6190349;28;20117;-68
2023/07/26 00:35:43;;;;;;;0.75;0.50;;;;;;;;;;6191748;28;20008;-67
2023/07/26 00:38:43;;;;;;;;;;;;;;;;;;6186419;28;20032;-68
2023/07/26 00:41:43;;;;;;;0.60;0.60;;;;;;;;;;6175645;28;20219;-68
2023/07/26 00:44:43;;;;;;;;;;;;;;;;;;6182832;28;20475;-66
2023/07/26 00:47:44;;;;;;;1.05;0.50;;;;;;;;;;6174393;28;19914;-68
2023/07/26 00:50:45;;;;;;;1.55;0.70;;;;;;;;;;6176041;28;20041;-68
2023/07/26 00:53:45;;;;;;;1.95;0.70;;;;;;;;;;6192114;28;20033;-68
2023/07/26 00:56:46;;;;;;;0.77;0.60;;;;;;;;;;6176585;28;20097;-69
2023/07/26 00:59:46;;;;;;;;;;;;;;;;;;6182649;28;20165;-68
2023/07/26 01:02:46;;;;;;;0.43;0.43;;;;;;;;;;6177360;28;19909;-69
2023/07/26 01:05:54;;;;;;;0.60;0.60;;;;;;;;;;6177105;28;20388;-69
2023/07/26 01:08:57;;;;;;;1.33;0.68;;;;;;;;;;6176817;28;20038;-69
2023/07/26 01:12:09;;;;;;;1.05;0.73;;;;;;;;;;6181279;28;20604;-68
2023/07/26 01:15:12;;;;;;;1.35;0.68;;;;;;;;;;6180273;28;20097;-69
2023/07/26 01:18:13;;;;;;;1.23;0.80;;;;;;;;;;6184980;28;20117;-68
2023/07/26 01:21:14;;;;;;;1.20;0.85;;;;;;;;;;6174611;28;20081;-68
2023/07/26 01:24:14;;;;;;;1.43;0.90;;;;;;;;;;6174491;28;20495;-69
2023/07/26 01:27:14;;;;;;;1.20;0.90;;;;;;;;;;6184510;28;20534;-69
2023/07/26 01:30:14;;;;;;;;;;;;;;;;;;6183897;28;20077;-69
2023/07/26 01:33:15;;;;;;;1.40;0.63;;;;;;;;;;6187957;28;20338;-68
2023/07/26 01:36:15;;;;;;;;;;;;;;;;;;6184679;28;20119;-67
2023/07/26 01:39:16;;;;;;;1.38;0.60;;;;;;;;;;6187735;28;20406;-67
2023/07/26 01:42:16;;;;;;;0.70;0.52;;;;;;;;;;6184642;28;20046;-68
2023/07/26 01:45:16;;;;;;;;;;;;;;;;;;6186203;28;20022;-68
2023/07/26 01:48:17;;;;;;;1.42;0.60;;;;;;;;;;6179939;28;19909;-67
2023/07/26 01:51:17;;;;;;;1.40;0.87;;;;;;;;;;6182329;28;20610;-67
2023/07/26 01:54:17;;;;;;;;;;;;;;;;;;6185891;28;20484;-68
2023/07/26 01:57:17;;;;;;;0.63;0.50;;;;;;;;;;6182913;28;20443;-68
2023/07/26 02:00:18;;;;;;;0.60;0.50;;;;;;;;;;6183088;28;20022;-67
2023/07/26 02:03:18;;;;;;;1.10;0.70;;;;;;;;;;6189113;28;20548;-68
2023/07/26 02:06:18;;;;;;;0.60;0.60;;;;;;;;;;6194150;28;20328;-67
2023/07/26 02:09:18;;;;;;;;;;;;;;;;;;6193492;28;20028;-66
2023/07/26 02:12:18;;;;;;;0.47;0.47;;;;;;;;;;6194443;28;19914;-68
2023/07/26 02:15:20;;;;;;;;;;;;;;;;;;6195077;28;20022;-69
2023/07/26 02:18:21;;;;;;;0.50;0.50;;;;;;;;;;6189797;28;19945;-68
2023/07/26 02:21:21;;;;;;;0.55;0.50;;;;;;;;;;6194837;28;20018;-68
2023/07/26 02:24:22;;;;;;;1.07;0.50;;;;;;;;;;6190625;28;20023;-68
2023/07/26 02:27:22;;;;;;;;;;;;;;;;;;6194516;28;20432;-68
2023/07/26 02:30:22;;;;;;;0.88;0.60;;;;;;;;;;6194266;28;20376;-69
2023/07/26 02:33:22;;;;;;;;;;;;;;;;;;6193708;28;20081;-69
2023/07/26 02:36:22;;;;;;;1.80;0.90;;;;;;;;;;6180344;28;20016;-67
2023/07/26 02:39:23;;;;;;;1.58;0.73;;;;;;;;;;6176397;28;20033;-66
2023/07/26 02:42:23;;;;;;;;;;;;;;;;;;6186113;28;20546;-66
2023/07/26 02:45:23;;;;;;;0.90;0.50;;;;;;;;;;6175749;28;19924;-67
2023/07/26 02:48:23;;;;;;;;;;;;;;;;;;6179173;28;20033;-67
2023/07/26 02:51:23;;;;;;;1.20;1.00;;;;;;;;;;6179602;28;19932;-68
2023/07/26 02:54:24;;;;;;;0.70;0.60;;;;;;;;;;6185541;28;20018;-65
2023/07/26 02:57:24;;;;;;;0.50;0.50;;;;;;;;;;6180994;28;20027;-67
2023/07/26 03:00:24;;;;;;;1.53;0.90;;;;;;;;;;6186471;28;20014;-66
2023/07/26 03:03:24;;;;;;;0.80;0.80;;;;;;;;;;6192735;28;20125;-66
2023/07/26 03:06:26;;;;;;;1.07;0.90;;;;;;;;;;6195452;28;20306;-66
2023/07/26 03:09:26;;;;;;;1.30;0.85;;;;;;;;;;6182628;28;20029;-67
2023/07/26 03:12:27;;;;;;;1.10;1.00;;;;;;;;;;6177147;28;20018;-64
2023/07/26 03:15:27;;;;;;;1.27;1.17;;;;;;;;;;6191643;28;20033;-66
2023/07/26 03:18:27;;;;;;;1.03;0.97;;;;;;;;;;6181245;28;20026;-64
2023/07/26 03:21:27;;;;;;;1.53;1.30;;;;;;;;;;6178574;28;20026;-64
2023/07/26 03:24:28;;;;;;;1.23;1.00;;;;;;;;;;6195661;28;20088;-63
2023/07/26 03:27:28;;;;;;;1.07;0.97;;;;;;;;;;6179640;28;20025;-66
2023/07/26 03:30:28;;;;;;;1.53;1.00;;;;;;;;;;6179600;28;20022;-65
2023/07/26 03:33:28;;;;;;;1.10;1.00;;;;;;;;;;6181368;28;20052;-66
2023/07/26 03:36:29;;;;;;;2.03;1.00;;;;;;;;;;6185478;28;20287;-66
2023/07/26 03:39:29;;;;;;;0.80;0.80;;;;;;;;;;6187400;28;20437;-67
2023/07/26 03:42:30;;;;;;;0.98;0.80;;;;;;;;;;6185796;28;20066;-68
2023/07/26 03:45:30;;;;;;;2.15;0.95;;;;;;;;;;6186783;28;20022;-68
2023/07/26 03:48:30;;;;;;;1.03;0.80;;;;;;;;;;6184643;28;20026;-67
2023/07/26 03:51:31;;;;;;;1.40;1.07;;;;;;;;;;6182473;28;20399;-66
2023/07/26 03:54:31;;;;;;;1.20;0.90;;;;;;;;;;6184558;28;20081;-67
2023/07/26 03:57:31;;;;;;;0.73;0.67;;;;;;;;;;6180372;28;20526;-68
2023/07/26 04:00:31;;;;;;;1.33;0.97;;;;;;;;;;6179192;28;20375;-67
2023/07/26 04:03:33;;;;;;;1.10;0.80;;;;;;;;;;6188481;28;20022;-68
2023/07/26 04:06:33;;;;;;;4.32;2.72;;;;;;;;;;6193919;28;20356;-67
2023/07/26 04:09:33;;;;;;;3.27;2.60;;;;;;;;;;6190883;28;20022;-68
2023/07/26 04:12:34;;;;;;;1.63;1.50;;;;;;;;;;6177512;28;20022;-68
2023/07/26 04:15:34;;;;;;;2.30;1.90;;;;;;;;;;6177618;28;20146;-67
2023/07/26 04:18:34;;;;;;;1.80;1.40;;;;;;;;;;6173715;28;20022;-73
2023/07/26 04:21:34;;;;;;;1.40;1.30;;;;;;;;;;6193183;28;20046;-72
2023/07/26 04:24:35;;;;;;;2.03;1.60;;;;;;;;;;6189137;28;20025;-73
2023/07/26 04:27:35;;;;;;;3.77;2.20;;;;;;;;;;6193067;28;20026;-72
2023/07/26 04:30:36;;;;;;;2.10;1.50;;;;;;;;;;6175148;28;20031;-72
2023/07/26 04:33:36;;;;;;;1.02;0.90;;;;;;;;;;6178112;28;20029;-73
2023/07/26 04:36:36;;;;;;;1.00;0.77;;;;;;;;;;6177487;28;20027;-73
2023/07/26 04:39:37;;;;;;;1.67;1.20;;;;;;;;;;6178706;28;20085;-72
2023/07/26 04:42:37;;;;;;;1.97;1.20;;;;;;;;;;6175568;28;20080;-73
2023/07/26 04:45:37;;;;;;;1.40;1.10;;;;;;;;;;6176753;28;20054;-72
2023/07/26 04:48:37;;;;;;;1.37;0.90;;;;;;;;;;6185991;28;20056;-72
2023/07/26 04:51:37;;;;;;;1.63;0.90;;;;;;;;;;6179134;28;20045;-73
2023/07/26 04:54:38;;;;;;;2.50;1.10;;;;;;;;;;6186216;28;20053;-73
2023/07/26 04:57:39;;;;;;;1.43;1.00;;;;;;;;;;6201074;28;20285;-73
2023/07/26 05:00:40;;;;;;;0.70;0.70;;;;;;;;;;6196215;28;20395;-72
2023/07/26 05:03:40;;;;;;;1.88;1.00;;;;;;;;;;6189675;28;20468;-72
2023/07/26 05:06:41;;;;;;;1.10;0.87;;;;;;;;;;6181607;28;20033;-70
2023/07/26 05:09:41;;;;;;;1.30;0.80;;;;;;;;;;6185225;28;20030;-72
2023/07/26 05:12:41;;;;;;;1.67;0.83;;;;;;;;;;6182190;28;20183;-72
2023/07/26 05:15:41;;;;;;;0.77;0.70;;;;;;;;;;6183745;28;20157;-73
2023/07/26 05:18:42;;;;;;;0.80;0.80;;;;;;;;;;6182163;28;20042;-72
2023/07/26 05:21:43;;;;;;;0.77;0.77;;;;;;;;;;6196209;28;20049;-73
2023/07/26 05:24:43;;;;;;;;;;;;;;;;;;6181172;28;20040;-73
2023/07/26 05:27:43;;;;;;;1.10;0.75;;;;;;;;;;6182640;28;19972;-73
2023/07/26 05:30:43;;;;;;;1.23;0.90;;;;;;;;;;6179295;28;20448;-73
2023/07/26 05:33:44;;;;;;;0.70;0.67;;;;;;;;;;6183022;28;20019;-74
2023/07/26 05:36:44;;;;;;;0.60;0.60;;;;;;;;;;6183992;28;20023;-74
2023/07/26 05:39:44;;;;;;;0.90;0.60;;;;;;;;;;6195141;28;20029;-75
2023/07/26 05:42:44;;;;;;;1.20;0.70;;;;;;;;;;6194979;28;20118;-74
2023/07/26 05:45:44;;;;;;;0.33;0.33;;;;;;;;;;6196139;28;20423;-72
2023/07/26 05:48:45;;;;;;;0.93;0.60;;;;;;;;;;6191715;28;20487;-72
2023/07/26 05:51:45;;;;;;;0.67;0.67;;;;;;;;;;6190692;28;20018;-74
2023/07/26 05:54:45;;;;;;;1.37;0.60;;;;;;;;;;6191109;28;20093;-73
2023/07/26 05:57:45;;;;;;;0.50;0.50;;;;;;;;;;6179951;28;20377;-74
2023/07/26 06:00:46;;;;;;;0.70;0.70;;;;;;;;;;6180804;28;20125;-74
2023/07/26 06:03:46;;;;;;;0.60;0.60;;;;;;;;;;6182295;28;20057;-75
2023/07/26 06:06:46;;;;;;;0.73;0.63;;;;;;;;;;6198633;28;20117;-70
2023/07/26 06:09:46;;;;;;;0.70;0.60;;;;;;;;;;6181948;28;20070;-71
2023/07/26 06:12:47;;;;;;;0.93;0.77;;;;;;;;;;6188337;28;20030;-73
2023/07/26 06:15:47;;;;;;;0.67;0.60;;;;;;;;;;6184202;28;20045;-73
2023/07/26 06:18:48;;;;;;;0.83;0.80;;;;;;;;;;6178558;28;20026;-74
2023/07/26 06:21:48;;;;;;;1.60;0.80;;;;;;;;;;6185768;28;20422;-75
2023/07/26 06:24:48;;;;;;;1.63;0.70;;;;;;;;;;6191119;28;20157;-75
2023/07/26 06:27:49;;;;;;;1.00;0.80;;;;;;;;;;6196913;28;20018;-74
2023/07/26 06:30:49;;;;;;;1.67;0.97;;;;;;;;;;6194493;28;20081;-72
2023/07/26 06:33:49;;;;;;;0.93;0.80;;;;;;;;;;6189593;28;20027;-73
2023/07/26 06:36:49;;;;;;;2.37;1.13;;;;;;;;;;6188465;28;20026;-73
2023/07/26 06:39:50;;;;;;;1.70;1.07;;;;;;;;;;6188127;28;20041;-73
2023/07/26 06:42:50;;;;;;;1.33;0.93;;;;;;;;;;6190603;28;20665;-72
2023/07/26 06:45:52;;;;;;;1.30;1.00;;;;;;;;;;6194357;28;20073;-74
2023/07/26 06:48:52;;;;;;;1.10;1.00;;;;;;;;;;6196719;28;20025;-73
2023/07/26 06:51:53;;;;;;;1.10;1.00;;;;;;;;;;6195595;28;20022;-72
2023/07/26 06:54:53;;;;;;;1.03;0.93;;;;;;;;;;6187021;28;20029;-74
2023/07/26 06:57:53;;;;;;;1.50;0.93;;;;;;;;;;5862381;28;9999769;-73
2023/07/26 07:00:54;;;;;;;0.97;0.83;;;;;;;;;;6193413;28;20433;-74
2023/07/26 07:03:54;;;;;;;1.15;0.90;;;;;;;;;;6192691;28;20451;-74
2023/07/26 07:06:55;;;;;;;1.10;1.00;;;;;;;;;;6189280;28;20022;-74
2023/07/26 07:09:55;;;;;;;0.90;0.90;;;;;;;;;;6192215;28;20064;-74
2023/07/26 07:12:55;;;;;;;0.97;0.90;;;;;;;;;;6191343;28;20022;-74
2023/07/26 07:15:56;;;;;;;0.80;0.80;;;;;;;;;;6207460;28;20387;-75
2023/07/26 07:18:56;;;;;;;0.80;0.80;;;;;;;;;;6189454;28;20120;-76
2023/07/26 07:21:56;;;;;;;0.90;0.80;;;;;;;;;;6206723;28;20487;-75
2023/07/26 07:24:56;;;;;;;1.50;0.77;;;;;;;;;;6188243;28;20486;-76
2023/07/26 07:27:56;;;;;;;1.30;1.00;;;;;;;;;;6188716;28;20143;-75
2023/07/26 07:30:57;;;;;;;1.07;1.03;;;;;;;;;;6191766;28;20103;-73
2023/07/26 07:33:57;;;;;;;1.30;1.20;;;;;;;;;;6190873;28;20353;-75
2023/07/26 07:36:57;;;;;;;1.80;1.13;;;;;;;;;;6190153;28;20024;-76
2023/07/26 07:39:57;;;;;;;1.33;1.23;;;;;;;;;;6203545;28;20321;-74
2023/07/26 07:42:58;;;;;;;2.43;1.20;;;;;;;;;;6194272;28;20502;-75
2023/07/26 07:45:58;;;;;;;1.70;1.40;;;;;;;;;;6187097;28;20017;-75
2023/07/26 07:48:59;;;;;;;2.00;1.45;;;;;;;;;;6187800;28;20085;-76
2023/07/26 07:52:00;;;;;;;1.08;0.98;;;;;;;;;;6189005;28;20100;-72
2023/07/26 07:55:00;;;;;;;;;;;;;;;;;;6189018;28;20034;-73
2023/07/26 07:58:01;;;;;;;2.33;1.20;;;;;;;;;;6188888;28;19922;-74
2023/07/26 08:01:01;;;;;;;2.53;1.30;;;;;;;;;;6200412;28;20029;-71
2023/07/26 08:04:02;;;;;;;;;;;;;;;;;;6191556;28;20065;-72
2023/07/26 08:07:02;;;;;;;1.83;1.60;;;;;;;;;;6190532;28;20381;-72
2023/07/26 08:10:02;;;;;;;;;;;;;;;;;;6192276;28;20022;-73
2023/07/26 08:13:03;;;;;;;1.77;1.67;;;;;;;;;;6181814;28;20366;-72
2023/07/26 08:16:03;;;;;;;2.23;2.00;;;;;;;;;;6188420;28;20026;-72
2023/07/26 08:19:03;;;;;;;;;;;;;;;;;;6191008;28;20022;-70
2023/07/26 08:22:04;;;;;;;2.03;1.83;;;;;;;;;;6186908;28;19913;-71
2023/07/26 08:25:04;;;;;;;;;;;;;;;;;;6184582;28;20797;-72
2023/07/26 08:28:04;;;;;;;2.03;1.33;;;;;;;;;;6190093;28;19968;-69
2023/07/26 08:31:04;;;;;;;;;;;;;;;;;;6190209;28;20133;-69
2023/07/26 08:34:04;;;;;;;1.73;1.50;;;;;;;;;;6184575;28;19909;-70
2023/07/26 08:37:04;;;;;;;;;;;;;;;;;;6191208;28;20353;-69
2023/07/26 08:40:05;;;;;;;1.92;1.70;;;;;;;;;;6189701;28;20290;-71
2023/07/26 08:43:05;;;;;;;;;;;;;;;;;;6189447;28;20018;-71
2023/07/26 08:46:07;;;;;;;3.10;1.83;;;;;;;;;;6190462;28;20009;-72
2023/07/26 08:49:08;;;;;;;2.20;1.70;;;;;;;;;;6189278;28;20030;-74
2023/07/26 08:52:08;;;;;;;;;;;;;;;;;;6184698;28;20121;-75
2023/07/26 08:55:09;;;;;;;2.35;1.83;;;;;;;;;;6191700;28;19916;-74
2023/07/26 08:58:09;;;;;;;;;;;;;;;;;;6188950;28;20533;-74
2023/07/26 09:01:09;;;;;;;2.97;2.00;;;;;;;;;;6191710;28;19913;-72
2023/07/26 09:04:10;;;;;;;;;;;;;;;;;;6206087;28;20028;-72
2023/07/26 09:07:11;;;;;;;2.10;1.85;;;;;;;;;;6188451;28;19917;-75
2023/07/26 09:10:11;;;;;;;2.78;1.70;;;;;;;;;;6184295;28;20065;-75
2023/07/26 09:13:12;;;;;;;2.87;1.67;;;;;;;;;;6190012;28;20030;-74
2023/07/26 09:16:12;;;;;;;2.75;1.70;;;;;;;;;;6190332;28;20297;-74
2023/07/26 09:19:13;;;;;;;;;;;;;;;;;;6190269;28;20023;-73
2023/07/26 09:22:13;;;;;;;2.25;1.50;;;;;;;;;;6189104;28;19967;-72
2023/07/26 09:25:13;;;;;;;;;;;;;;;;;;6191268;28;20010;-71
2023/07/26 09:28:14;;;;;;;1.65;1.38;;;;;;;;;;6187769;28;19960;-72
2023/07/26 09:31:14;;;;;;;2.25;1.40;;;;;;;;;;6189597;28;20023;-70
2023/07/26 09:34:18;;;;;;;1.53;1.40;;;;;;;;;;6186117;28;20353;-68
2023/07/26 09:37:19;;;;;;;1.52;1.40;;;;;;;;;;6189520;28;20144;-68
2023/07/26 09:40:32;;;;;;;1.40;1.20;;;;;;;;;;6192324;28;20037;-67
2023/07/26 09:43:33;;;;;;;2.30;1.35;;;;;;;;;;6190636;28;20365;-68
2023/07/26 09:46:52;;;;;;;3.25;1.60;;;;;;;;;;6190633;28;20022;-67
2023/07/26 09:49:52;;;;;;;1.33;1.20;;;;;;;;;;6206128;28;20022;-68
2023/07/26 09:52:54;;;;;;;2.17;1.40;;;;;;;;;;6192823;28;20521;-69
2023/07/26 09:55:54;;;;;;;1.88;1.40;;;;;;;;;;6193723;28;20726;-70
2023/07/26 09:58:54;;;;;;;2.72;1.17;;;;;;;;;;6190836;28;20174;-71
2023/07/26 10:01:57;;;;;;;1.55;1.30;;;;;;;;;;6192030;28;20026;-72
2023/07/26 10:04:59;;;;;;;1.63;1.40;;;;;;;;;;6188069;28;20045;-72
2023/07/26 10:08:00;;;;;;;1.85;1.40;;;;;;;;;;6194519;28;20025;-73
2023/07/26 10:11:01;;;;;;;2.08;1.23;;;;;;;;;;6192690;28;20382;-73
2023/07/26 10:14:02;;;;;;;2.88;1.15;;;;;;;;;;6195323;28;20018;-74
2023/07/26 10:17:03;;;;;;;1.30;1.08;;;;;;;;;;6203717;28;20018;-73
2023/07/26 10:20:04;;;;;;;3.13;1.23;;;;;;;;;;6209317;28;20041;-73
2023/07/26 10:23:04;;;;;;;1.70;1.15;;;;;;;;;;6191501;28;20022;-72
2023/07/26 10:26:05;;;;;;;1.30;1.20;;;;;;;;;;6193284;28;20801;-73
2023/07/26 10:29:05;;;;;;;1.92;1.20;;;;;;;;;;6192845;28;20591;-71
2023/07/26 10:32:07;;;;;;;1.63;1.10;;;;;;;;;;6193903;28;20252;-71
2023/07/26 10:35:09;;;;;;;1.00;0.90;;;;;;;;;;6193585;28;20034;-71
2023/07/26 10:38:11;;;;;;;1.38;1.27;;;;;;;;;;6193595;28;20149;-71
2023/07/26 10:41:25;;;;;;;4.70;1.60;;;;;;;;;;6191094;28;20034;-70
2023/07/26 10:44:25;;;;;;;2.28;1.08;;;;;;;;;;6188872;28;20023;-70
2023/07/26 10:47:25;;;;;;;2.00;1.27;;;;;;;;;;6193247;28;20026;-70
2023/07/26 10:50:26;;;;;;;1.53;1.13;;;;;;;;;;6192074;28;20416;-71
2023/07/26 10:53:27;;;;;;;1.05;1.02;;;;;;;;;;6190541;28;20280;-73
2023/07/26 10:56:31;;;;;;;1.83;1.20;;;;;;;;;;6192611;28;20518;-72
2023/07/26 10:59:31;;;;;;;1.65;1.20;;;;;;;;;;6187942;28;20494;-72
2023/07/26 11:02:43;;;;;;;2.37;1.10;;;;;;;;;;6191433;28;20014;-73
2023/07/26 11:05:53;;;;;;;2.00;0.95;;;;;;;;;;6203764;28;20033;-72
2023/07/26 11:08:53;;;;;;;1.20;1.02;;;;;;;;;;6190799;28;20030;-73
2023/07/26 11:11:54;;;;;;;3.50;1.17;;;;;;;;;;6189608;28;20076;-72
2023/07/26 11:14:54;;;;;;;1.55;1.00;;;;;;;;;;6190789;28;20296;-73
2023/07/26 11:17:55;;;;;;;2.00;1.10;;;;;;;;;;6191738;28;20042;-74
2023/07/26 11:20:56;;;;;;;2.63;1.30;;;;;;;;;;6192154;28;20340;-70
2023/07/26 11:23:59;;;;;;;2.38;1.20;;;;;;;;;;6204546;28;20281;-71
2023/07/26 11:27:06;;;;;;;2.83;1.08;;;;;;;;;;6190460;28;20106;-71
2023/07/26 11:30:16;;;;;;;2.08;1.02;;;;;;;;;;6189077;28;20034;-70
2023/07/26 11:33:33;;;;;;;1.08;0.98;;;;;;;;;;6190360;28;20049;-69
2023/07/26 11:36:33;;;;;;;1.80;1.15;;;;;;;;;;6190471;28;20045;-68
2023/07/26 11:39:34;;;;;;;1.00;0.93;;;;;;;;;;6189028;28;20101;-71
2023/07/26 11:42:34;;;;;;;1.10;0.80;;;;;;;;;;6188126;28;20033;-68
2023/07/26 11:45:35;;;;;;;1.63;1.10;;;;;;;;;;6186910;28;20896;-68
2023/07/26 11:48:35;;;;;;;1.45;1.05;;;;;;;;;;6188233;28;20410;-70
2023/07/26 11:51:36;;;;;;;1.30;1.10;;;;;;;;;;6203441;28;20073;-68
2023/07/26 11:54:36;;;;;;;1.63;0.90;;;;;;;;;;6190165;28;20077;-68
2023/07/26 11:57:36;;;;;;;1.43;0.80;;;;;;;;;;6187540;28;20287;-69
2023/07/26 12:00:37;;;;;;;1.17;1.00;;;;;;;;;;6189654;28;20663;-68
2023/07/26 12:03:38;;;;;;;1.05;0.70;;;;;;;;;;6188431;28;20278;-68
2023/07/26 12:06:40;;;;;;;1.98;0.90;;;;;;;;;;6188175;28;20022;-69
2023/07/26 12:09:43;;;;;;;0.75;0.75;;;;;;;;;;6189003;28;20046;-70
2023/07/26 12:12:44;;;;;;;1.02;0.63;;;;;;;;;;6188816;28;20030;-69
2023/07/26 12:15:48;;;;;;;0.65;0.60;;;;;;;;;;5839905;28;9999753;-68
2023/07/26 12:18:53;;;;;;;0.95;0.88;;;;;;;;;;6191795;28;20471;-69
2023/07/26 12:21:54;;;;;;;1.23;0.82;;;;;;;;;;6193057;28;20050;-69
2023/07/26 12:24:54;;;;;;;3.20;0.90;;;;;;;;;;6193231;28;20026;-69
2023/07/26 12:27:55;;;;;;;1.02;0.80;;;;;;;;;;6193247;28;20023;-69
2023/07/26 12:30:56;;;;;;;0.90;0.70;;;;;;;;;;6193433;28;20314;-70
2023/07/26 12:33:58;;;;;;;0.57;0.57;;;;;;;;;;6192623;28;20019;-70
2023/07/26 12:37:00;;;;;;;3.25;0.60;;;;;;;;;;6186012;28;20017;-69
2023/07/26 12:40:01;;;;;;;0.50;0.50;;;;;;;;;;6192861;28;20049;-69
2023/07/26 12:43:20;;;;;;;0.40;0.40;;;;;;;;;;6193325;28;20367;-70
2023/07/26 12:46:21;;;;;;;0.70;0.40;;;;;;;;;;6192952;28;20076;-69
2023/07/26 12:49:21;;;;;;;0.40;0.40;;;;;;;;;;6193791;28;20431;-69
2023/07/26 12:52:21;;;;;;;0.97;0.60;;;;;;;;;;6193176;28;20077;-69
2023/07/26 12:55:22;;;;;;;0.50;0.40;;;;;;;;;;6192606;28;20104;-69
2023/07/26 12:58:22;;;;;;;0.50;0.50;;;;;;;;;;6187006;28;20071;-69
2023/07/26 13:01:22;;;;;;;0.53;0.50;;;;;;;;;;6189164;28;20124;-67
2023/07/26 13:04:22;;;;;;;0.70;0.60;;;;;;;;;;6190920;28;20332;-69
2023/07/26 13:07:23;;;;;;;0.47;0.47;;;;;;;;;;6194531;28;20367;-68
2023/07/26 13:10:24;;;;;;;1.87;0.60;;;;;;;;;;6196143;28;20033;-70
2023/07/26 13:13:25;;;;;;;0.70;0.50;;;;;;;;;;6192752;28;20284;-67
2023/07/26 13:16:26;;;;;;;0.40;0.40;;;;;;;;;;6193411;28;20699;-70
2023/07/26 13:19:26;;;;;;;1.50;0.60;;;;;;;;;;6195697;28;20022;-69
2023/07/26 13:22:26;;;;;;;0.60;0.60;;;;;;;;;;6191229;28;20026;-69
2023/07/26 13:25:27;;;;;;;0.65;0.57;;;;;;;;;;6190889;28;20030;-69
2023/07/26 13:28:27;;;;;;;0.83;0.67;;;;;;;;;;6193315;28;20093;-70
2023/07/26 13:31:27;;;;;;;1.42;0.43;;;;;;;;;;6189385;28;20038;-69
2023/07/26 13:34:27;;;;;;;3.50;0.67;;;;;;;;;;6193580;28;20026;-68
2023/07/26 13:37:28;;;;;;;0.80;0.67;;;;;;;;;;6194696;28;20026;-68
2023/07/26 13:40:28;;;;;;;0.88;0.65;;;;;;;;;;6190909;28;20304;-69
2023/07/26 13:43:30;;;;;;;0.83;0.60;;;;;;;;;;6190048;28;20554;-69
2023/07/26 13:46:31;;;;;;;1.05;0.70;;;;;;;;;;6192366;28;20405;-70
2023/07/26 13:49:31;;;;;;;0.50;0.50;;;;;;;;;;6195375;28;20055;-68
2023/07/26 13:52:31;;;;;;;0.80;0.60;;;;;;;;;;6189461;28;20285;-70
2023/07/26 13:55:31;;;;;;;0.60;0.40;;;;;;;;;;6194119;28;20269;-70
2023/07/26 13:58:33;;;;;;;0.60;0.50;;;;;;;;;;6191945;28;20033;-69
2023/07/26 14:01:34;;;;;;;0.80;0.80;;;;;;;;;;6189969;28;20025;-68
2023/07/26 14:04:34;;;;;;;0.60;0.60;;;;;;;;;;6193641;28;20025;-68
2023/07/26 14:07:35;;;;;;;0.53;0.50;;;;;;;;;;6191967;28;20018;-68
2023/07/26 14:10:35;;;;;;;1.00;0.70;;;;;;;;;;6194799;28;20293;-68
2023/07/26 14:13:36;;;;;;;0.50;0.50;;;;;;;;;;6190817;28;20028;-69
2023/07/26 14:16:36;;;;;;;0.82;0.68;;;;;;;;;;6190119;28;20117;-68
2023/07/26 14:19:36;;;;;;;1.17;0.60;;;;;;;;;;6193526;28;20472;-69
2023/07/26 14:22:36;;;;;;;0.50;0.50;;;;;;;;;;6194116;28;20015;-68
2023/07/26 14:25:37;;;;;;;0.57;0.50;;;;;;;;;;6186998;28;20209;-69
2023/07/26 14:28:37;;;;;;;0.63;0.50;;;;;;;;;;6192410;28;20030;-70
2023/07/26 14:31:37;;;;;;;0.50;0.40;;;;;;;;;;6190776;28;20030;-69
2023/07/26 14:34:37;;;;;;;1.73;0.77;;;;;;;;;;6191747;28;20128;-70
2023/07/26 14:37:37;;;;;;;0.40;0.40;;;;;;;;;;6191750;28;20041;-71
2023/07/26 14:40:38;;;;;;;0.80;0.50;;;;;;;;;;6190890;28;20081;-70
2023/07/26 14:43:38;;;;;;;1.48;0.70;;;;;;;;;;6188568;28;20074;-69
2023/07/26 14:46:38;;;;;;;0.50;0.50;;;;;;;;;;6189622;28;20076;-70
2023/07/26 14:49:38;;;;;;;1.15;0.45;;;;;;;;;;6194167;28;20273;-72
2023/07/26 14:52:39;;;;;;;0.53;0.53;;;;;;;;;;6189803;28;20076;-70
2023/07/26 14:55:40;;;;;;;1.20;0.90;;;;;;;;;;6190728;28;20405;-69
2023/07/26 14:58:40;;;;;;;0.88;0.52;;;;;;;;;;6187626;28;20034;-67
2023/07/26 15:01:40;;;;;;;0.60;0.57;;;;;;;;;;6191828;28;20030;-67
2023/07/26 15:04:41;;;;;;;0.52;0.52;;;;;;;;;;6190509;28;20034;-71
2023/07/26 15:07:41;;;;;;;0.83;0.63;;;;;;;;;;6184810;28;20117;-69
2023/07/26 15:10:41;;;;;;;0.50;0.50;;;;;;;;;;6190667;28;20291;-68
2023/07/26 15:13:41;;;;;;;0.73;0.50;;;;;;;;;;6191152;28;20054;-68
2023/07/26 15:16:42;;;;;;;0.77;0.53;;;;;;;;;;6191218;28;20106;-68
2023/07/26 15:19:42;;;;;;;0.70;0.60;;;;;;;;;;6189218;28;20235;-69
2023/07/26 15:22:42;;;;;;;0.60;0.53;;;;;;;;;;6190538;28;20080;-69
2023/07/26 15:25:42;;;;;;;0.77;0.65;;;;;;;;;;6186461;28;20097;-68
2023/07/26 15:28:43;;;;;;;1.10;0.60;;;;;;;;;;6184443;28;20033;-68
2023/07/26 15:31:43;;;;;;;0.90;0.50;;;;;;;;;;6185870;28;20030;-69
2023/07/26 15:34:43;;;;;;;0.75;0.68;;;;;;;;;;6188947;28;20281;-68
2023/07/26 15:37:44;;;;;;;0.50;0.50;;;;;;;;;;6186525;28;20050;-71
2023/07/26 15:40:44;;;;;;;7.27;0.60;;;;;;;;;;6191569;28;20312;-70
2023/07/26 15:43:44;;;;;;;0.85;0.63;;;;;;;;;;6188838;28;20360;-69
2023/07/26 15:46:44;;;;;;;0.50;0.50;;;;;;;;;;6184966;28;20437;-70
2023/07/26 15:49:45;;;;;;;0.70;0.60;;;;;;;;;;6186751;28;20030;-71
2023/07/26 15:52:45;;;;;;;0.80;0.65;;;;;;;;;;5844069;28;9999995;-71
2023/07/26 15:55:45;;;;;;;;;;;;;;;;;;6187441;28;20034;-68
2023/07/26 15:58:45;;;;;;;0.60;0.57;;;;;;;;;;6189432;28;20007;-69
2023/07/26 16:01:47;;;;;;;1.57;0.73;;;;;;;;;;6190970;28;20033;-70
2023/07/26 16:04:47;;;;;;;0.70;0.70;;;;;;;;;;6195630;28;20455;-71
2023/07/26 16:07:48;;;;;;;;;;;;;;;;;;6191967;28;20073;-68
2023/07/26 16:10:48;;;;;;;1.42;0.70;;;;;;;;;;6193628;28;19916;-69
2023/07/26 16:13:48;;;;;;;;;;;;;;;;;;6190237;28;20033;-69
2023/07/26 16:16:48;;;;;;;0.95;0.80;;;;;;;;;;6191296;28;20015;-71
2023/07/26 16:19:48;;;;;;;;;;;;;;;;;;6187752;28;20376;-69
2023/07/26 16:22:49;;;;;;;1.95;0.80;;;;;;;;;;6192578;28;19913;-70
2023/07/26 16:25:49;;;;;;;;;;;;;;;;;;6190198;28;20444;-69
2023/07/26 16:28:49;;;;;;;1.42;0.90;;;;;;;;;;6187817;28;19948;-71
2023/07/26 16:31:50;;;;;;;1.60;0.60;;;;;;;;;;6190672;28;20022;-68
2023/07/26 16:34:50;;;;;;;0.98;0.70;;;;;;;;;;6191892;28;20033;-68
2023/07/26 16:37:50;;;;;;;;;;;;;;;;;;6187655;28;20018;-69
2023/07/26 16:40:51;;;;;;;0.70;0.70;;;;;;;;;;6187635;28;20176;-70
2023/07/26 16:43:51;;;;;;;;;;;;;;;;;;6195356;28;20463;-69
2023/07/26 16:46:51;;;;;;;0.95;0.85;;;;;;;;;;6195843;28;19980;-70
2023/07/26 16:49:51;;;;;;;;;;;;;;;;;;6191643;28;20034;-69
2023/07/26 16:52:52;;;;;;;2.67;1.10;;;;;;;;;;6193247;28;19913;-70
2023/07/26 16:55:52;;;;;;;;;;;;;;;;;;6189826;28;20022;-68
2023/07/26 16:58:52;;;;;;;1.20;1.07;;;;;;;;;;6194553;28;19913;-69
2023/07/26 17:01:52;;;;;;;;;;;;;;;;;;6210798;28;20014;-68
2023/07/26 17:04:53;;;;;;;1.70;1.08;;;;;;;;;;6194986;28;19909;-70
2023/07/26 17:07:53;;;;;;;;;;;;;;;;;;6194180;28;20026;-69
2023/07/26 17:10:53;;;;;;;1.15;1.00;;;;;;;;;;6191941;28;19921;-69
2023/07/26 17:13:53;;;;;;;1.70;1.20;;;;;;;;;;6193111;28;20081;-69
2023/07/26 17:16:53;;;;;;;1.00;0.90;;;;;;;;;;6193315;28;20028;-68
2023/07/26 17:19:53;;;;;;;1.00;0.90;;;;;;;;;;6189614;28;20484;-69
2023/07/26 17:22:54;;;;;;;0.97;0.90;;;;;;;;;;6193465;28;20024;-68
2023/07/26 17:25:55;;;;;;;0.57;0.57;;;;;;;;;;6194561;28;20014;-69
2023/07/26 17:28:56;;;;;;;0.63;0.60;;;;;;;;;;6194275;28;20815;-69
2023/07/26 17:31:56;;;;;;;0.90;0.63;;;;;;;;;;6190127;28;20341;-69
2023/07/26 17:34:56;;;;;;;;;;;;;;;;;;6209329;28;20018;-70
2023/07/26 17:37:57;;;;;;;1.08;0.70;;;;;;;;;;6183364;28;20040;-69
2023/07/26 17:41:04;;;;;;;1.02;0.70;;;;;;;;;;6178683;28;20030;-69
2023/07/26 17:44:04;;;;;;;1.02;0.68;;;;;;;;;;6176626;28;20502;-69
2023/07/26 17:47:04;;;;;;;0.93;0.77;;;;;;;;;;6179755;28;20030;-68
2023/07/26 17:50:05;;;;;;;0.90;0.80;;;;;;;;;;6180640;28;20096;-69
2023/07/26 17:53:05;;;;;;;1.17;0.68;;;;;;;;;;6175731;28;20113;-68
2023/07/26 17:56:06;;;;;;;1.27;0.80;;;;;;;;;;6176343;28;20050;-72
2023/07/26 17:59:06;;;;;;;1.48;0.80;;;;;;;;;;6179693;28;20116;-70
2023/07/26 18:02:07;;;;;;;1.23;0.85;;;;;;;;;;6174911;28;20403;-69
2023/07/26 18:05:07;;;;;;;2.73;1.50;;;;;;;;;;6175887;28;20022;-69
2023/07/26 18:08:07;;;;;;;2.10;1.90;;;;;;;;;;6181724;28;20281;-69
2023/07/26 18:11:08;;;;;;;2.70;1.80;;;;;;;;;;6180456;28;20019;-69
2023/07/26 18:14:09;;;;;;;2.05;1.40;;;;;;;;;;6187167;28;20018;-69
2023/07/26 18:17:09;;;;;;;3.03;2.00;;;;;;;;;;6186286;28;20026;-70
2023/07/26 18:20:10;;;;;;;2.47;2.03;;;;;;;;;;6182938;28;20061;-69